createdAt,value
2023-03-26T00:00:12.714Z,2.92
2023-03-26T00:03:16.978Z,3.25
2023-03-26T00:06:22.857Z,2.60
2023-03-26T00:09:25.189Z,2.62
2023-03-26T00:12:27.819Z,2.30
2023-03-26T00:15:30.925Z,2.95
2023-03-26T00:18:34.947Z,2.80
2023-03-26T00:21:37.446Z,2.33
2023-03-26T00:24:40.661Z,2.80
2023-03-26T00:27:45.512Z,2.20
2023-03-26T00:30:49.730Z,2.30
2023-03-26T00:33:56.353Z,2.28
2023-03-26T00:37:02.480Z,4.93
2023-03-26T00:40:07.593Z,2.67
2023-03-26T00:43:18.888Z,3.40
2023-03-26T00:46:22.306Z,2.58
2023-03-26T00:49:26.678Z,2.92
2023-03-26T00:52:29.744Z,2.80
2023-03-26T00:55:32.376Z,2.40
2023-03-26T00:58:35.215Z,2.93
2023-03-26T01:01:37.933Z,1.98
2023-03-26T01:04:40.669Z,2.45
2023-03-26T01:07:44.712Z,1.95
2023-03-26T01:10:50.964Z,2.50
2023-03-26T01:14:18.445Z,3.00
2023-03-26T01:17:22.012Z,5.30
2023-03-26T01:20:30.536Z,2.95
2023-03-26T01:23:37.937Z,3.10
2023-03-26T01:26:58.998Z,1.90
2023-03-26T01:30:13.395Z,3.77
2023-03-26T01:33:43.892Z,2.50
2023-03-26T01:37:30.538Z,3.10
2023-03-26T01:41:19.252Z,3.53
2023-03-26T01:44:29.250Z,1.67
2023-03-26T01:47:32.573Z,3.70
2023-03-26T01:50:34.926Z,2.33
2023-03-26T01:53:43.554Z,3.92
2023-03-26T01:56:57.726Z,2.35
2023-03-26T02:00:23.295Z,2.03
2023-03-26T02:03:31.825Z,2.30
2023-03-26T02:06:44.576Z,2.75
2023-03-26T02:09:52.694Z,2.78
2023-03-26T02:12:56.007Z,2.20
2023-03-26T02:16:01.686Z,2.10
2023-03-26T02:19:04.576Z,3.77
2023-03-26T02:22:11.036Z,3.12
2023-03-26T02:25:16.536Z,5.20
2023-03-26T02:28:20.008Z,2.90
2023-03-26T02:31:26.478Z,3.00
2023-03-26T02:34:29.427Z,2.40
2023-03-26T02:37:33.909Z,2.62
2023-03-26T02:40:38.457Z,4.43
2023-03-26T02:43:40.917Z,3.30
2023-03-26T02:46:44.624Z,2.30
2023-03-26T02:49:47.757Z,4.03
2023-03-26T02:52:50.699Z,2.90
2023-03-26T02:55:53.502Z,3.22
2023-03-26T02:58:56.701Z,3.20
2023-03-26T03:01:59.152Z,2.83
2023-03-26T03:05:08.452Z,3.87
2023-03-26T03:08:11.215Z,4.22
2023-03-26T03:11:22.245Z,3.53
2023-03-26T03:14:24.709Z,2.55
2023-03-26T03:17:27.606Z,2.30
2023-03-26T03:20:35.284Z,2.60
2023-03-26T03:23:38.216Z,3.17
2023-03-26T03:26:42.477Z,3.15
2023-03-26T03:29:46.323Z,2.83
2023-03-26T03:32:49.607Z,3.45
2023-03-26T03:35:52.959Z,2.70
2023-03-26T03:38:55.591Z,2.78
2023-03-26T03:41:58.851Z,3.08
2023-03-26T03:45:02.112Z,4.00
2023-03-26T03:48:07.733Z,2.75
2023-03-26T03:51:11.170Z,3.33
2023-03-26T03:54:14.935Z,2.83
2023-03-26T03:57:18.830Z,2.35
2023-03-26T04:00:22.735Z,2.70
2023-03-26T04:03:33.490Z,2.45
2023-03-26T04:06:37.761Z,2.27
2023-03-26T04:09:41.099Z,2.70
2023-03-26T04:12:44.947Z,7.60
2023-03-26T04:15:47.976Z,2.85
2023-03-26T04:18:50.260Z,4.35
2023-03-26T04:21:54.398Z,2.53
2023-03-26T04:24:57.054Z,3.47
2023-03-26T04:28:06.540Z,2.87
2023-03-26T04:31:15.760Z,4.62
2023-03-26T04:34:26.371Z,2.30
2023-03-26T04:37:36.304Z,2.43
2023-03-26T04:40:40.398Z,4.10
2023-03-26T04:43:47.335Z,4.03
2023-03-26T04:46:53.045Z,3.25
2023-03-26T04:49:56.120Z,4.32
2023-03-26T04:52:59.095Z,3.00
2023-03-26T04:56:32.265Z,3.42
2023-03-26T04:59:41.420Z,3.85
2023-03-26T05:02:45.904Z,3.15
2023-03-26T05:05:49.754Z,3.33
2023-03-26T05:08:52.113Z,4.60
2023-03-26T05:11:57.458Z,3.00
2023-03-26T05:15:00.380Z,3.95
2023-03-26T05:18:03.738Z,5.10
2023-03-26T05:21:06.738Z,4.70
2023-03-26T05:24:09.537Z,4.17
2023-03-26T05:27:17.070Z,5.28
2023-03-26T05:30:21.441Z,4.07
2023-03-26T05:33:24.446Z,3.50
2023-03-26T05:36:28.595Z,4.40
2023-03-26T05:39:33.783Z,5.07
2023-03-26T05:42:39.310Z,3.75
2023-03-26T05:45:42.243Z,4.47
2023-03-26T05:48:45.807Z,2.92
2023-03-26T05:51:48.269Z,4.62
2023-03-26T05:54:51.373Z,3.67
2023-03-26T05:57:56.108Z,3.70
2023-03-26T06:01:09.851Z,4.53
2023-03-26T06:04:16.250Z,4.93
2023-03-26T06:07:19.947Z,4.35
2023-03-26T06:10:24.206Z,4.13
2023-03-26T06:13:26.644Z,4.35
2023-03-26T06:16:29.404Z,3.42
2023-03-26T06:19:31.928Z,4.62
2023-03-26T06:22:34.623Z,5.00
2023-03-26T06:25:38.558Z,3.17
2023-03-26T06:28:41.738Z,3.37
2023-03-26T06:31:45.516Z,3.17
2023-03-26T06:34:48.834Z,3.92
2023-03-26T06:37:51.384Z,4.65
2023-03-26T06:40:54.170Z,3.27
2023-03-26T06:43:56.944Z,4.15
2023-03-26T06:47:00.218Z,5.22
2023-03-26T06:50:05.668Z,6.55
2023-03-26T06:53:11.327Z,3.85
2023-03-26T06:56:15.230Z,3.20
2023-03-26T06:59:18.163Z,4.12
2023-03-26T07:02:27.328Z,3.35
2023-03-26T07:05:41.633Z,2.85
2023-03-26T07:08:44.819Z,4.20
2023-03-26T07:11:49.009Z,5.83
2023-03-26T07:14:53.216Z,4.60
2023-03-26T07:17:57.058Z,5.32
2023-03-26T07:20:59.958Z,3.90
2023-03-26T07:24:05.345Z,6.25
2023-03-26T07:27:31.742Z,4.07
2023-03-26T07:30:59.684Z,5.43
2023-03-26T07:34:25.287Z,5.55
2023-03-26T07:37:49.392Z,4.57
2023-03-26T07:41:12.137Z,3.80
2023-03-26T07:44:35.748Z,5.90
2023-03-26T07:47:42.436Z,4.22
2023-03-26T07:50:48.377Z,4.72
2023-03-26T07:53:53.286Z,3.50
2023-03-26T07:57:02.173Z,4.80
2023-03-26T08:00:22.115Z,4.40
2023-03-26T08:03:50.936Z,7.32
2023-03-26T08:07:08.123Z,4.85
2023-03-26T08:10:48.632Z,5.50
2023-03-26T08:14:00.829Z,5.07
2023-03-26T08:17:13.888Z,3.33
2023-03-26T08:20:34.472Z,5.68
2023-03-26T08:23:50.813Z,4.80
2023-03-26T08:27:13.722Z,4.57
2023-03-26T08:30:22.596Z,5.40
2023-03-26T08:33:27.480Z,4.10
2023-03-26T08:36:30.244Z,4.10
2023-03-26T08:39:32.530Z,9.38
2023-03-26T08:42:37.951Z,4.12
2023-03-26T08:46:14.190Z,4.68
2023-03-26T08:49:17.065Z,5.13
2023-03-26T08:52:34.300Z,4.32
2023-03-26T08:55:56.665Z,3.92
2023-03-26T08:59:25.815Z,3.78
2023-03-26T09:03:06.694Z,6.53
2023-03-26T09:06:17.495Z,4.73
2023-03-26T09:09:48.806Z,7.97
2023-03-26T09:13:24.985Z,6.12
2023-03-26T09:17:10.738Z,4.47
2023-03-26T09:20:34.591Z,4.40
2023-03-26T09:23:43.372Z,4.27
2023-03-26T09:27:07.513Z,4.53
2023-03-26T09:30:36.712Z,4.72
2023-03-26T09:34:05.742Z,5.65
2023-03-26T09:37:21.212Z,4.18
2023-03-26T09:40:52.946Z,6.37
2023-03-26T09:44:17.214Z,4.45
2023-03-26T09:47:52.725Z,3.67
2023-03-26T09:51:07.364Z,5.93
2023-03-26T09:54:39.460Z,4.62
2023-03-26T09:58:21.413Z,3.93
2023-03-26T10:01:33.322Z,4.68
2023-03-26T10:05:11.017Z,5.22
2023-03-26T10:08:39.276Z,3.55
2023-03-26T10:12:11.978Z,5.28
2023-03-26T10:15:17.121Z,3.97
2023-03-26T10:18:44.304Z,4.00
2023-03-26T10:22:16.669Z,6.03
2023-03-26T10:25:33.747Z,3.78
2023-03-26T10:29:00.182Z,5.97
2023-03-26T10:32:22.836Z,4.77
2023-03-26T10:35:43.895Z,4.65
2023-03-26T10:39:09.350Z,5.65
2023-03-26T10:42:37.077Z,4.15
2023-03-26T10:46:10.643Z,4.95
2023-03-26T10:49:22.203Z,6.97
2023-03-26T10:52:46.952Z,4.12
2023-03-26T10:55:57.936Z,5.80
2023-03-26T10:59:06.377Z,4.30
2023-03-26T11:02:37.362Z,4.28
2023-03-26T11:05:54.106Z,4.67
2023-03-26T11:09:15.357Z,8.75
2023-03-26T11:12:26.704Z,4.87
2023-03-26T11:15:33.247Z,4.10
2023-03-26T11:18:43.565Z,7.05
2023-03-26T11:22:13.654Z,3.83
2023-03-26T11:25:22.250Z,3.90
2023-03-26T11:29:32.813Z,4.07
2023-03-26T11:32:45.082Z,3.87
2023-03-26T11:35:51.149Z,3.50
2023-03-26T11:38:57.999Z,4.23
2023-03-26T11:42:08.175Z,5.60
2023-03-26T11:45:18.494Z,4.78
2023-03-26T11:48:33.193Z,4.57
2023-03-26T11:51:38.210Z,4.80
2023-03-26T11:54:40.655Z,4.23
2023-03-26T11:57:50.446Z,4.78
2023-03-26T12:00:54.854Z,4.57
2023-03-26T12:04:04.188Z,4.18
2023-03-26T12:07:12.741Z,3.90
2023-03-26T12:10:28.985Z,4.53
2023-03-26T12:13:39.588Z,4.78
2023-03-26T12:16:59.431Z,4.28
2023-03-26T12:20:22.592Z,3.80
2023-03-26T12:23:38.789Z,2.83
2023-03-26T12:26:45.037Z,3.27
2023-03-26T12:30:10.982Z,3.20
2023-03-26T12:33:26.149Z,3.08
2023-03-26T12:36:31.665Z,5.18
2023-03-26T12:40:10.817Z,4.40
2023-03-26T12:44:54.827Z,3.93
2023-03-26T12:48:00.516Z,3.22
2023-03-26T12:50:17.029Z,4.30
2023-03-26T12:53:41.716Z,3.45
2023-03-26T12:57:22.336Z,4.65
2023-03-26T13:00:31.692Z,4.10
2023-03-26T13:03:59.501Z,4.57
2023-03-26T13:07:15.305Z,3.08
2023-03-26T13:10:30.539Z,3.30
2023-03-26T13:14:14.313Z,3.00
2023-03-26T13:17:32.470Z,3.30
2023-03-26T13:20:53.940Z,3.33
2023-03-26T13:24:02.570Z,5.68
2023-03-26T13:27:16.801Z,5.25
2023-03-26T13:30:31.556Z,3.53
2023-03-26T13:33:44.969Z,3.83
2023-03-26T13:36:47.646Z,4.45
2023-03-26T13:39:56.915Z,2.97
2023-03-26T13:43:19.084Z,3.50
2023-03-26T13:46:27.120Z,3.90
2023-03-26T13:49:37.405Z,3.37
2023-03-26T13:52:46.391Z,2.97
2023-03-26T13:55:55.705Z,3.20
2023-03-26T13:59:03.472Z,3.37
2023-03-26T14:02:15.042Z,3.20
2023-03-26T14:05:24.844Z,5.30
2023-03-26T14:08:27.164Z,3.20
2023-03-26T14:11:46.740Z,3.58
2023-03-26T14:14:59.094Z,5.05
2023-03-26T14:18:06.170Z,3.60
2023-03-26T14:21:46.470Z,2.53
2023-03-26T14:25:13.871Z,2.45
2023-03-26T14:28:41.487Z,4.70
2023-03-26T14:32:09.023Z,3.33
2023-03-26T14:35:39.126Z,5.30
2023-03-26T14:38:57.551Z,3.50
2023-03-26T14:42:07.959Z,2.87
2023-03-26T14:45:48.691Z,2.53
2023-03-26T14:48:53.842Z,4.87
2023-03-26T14:52:18.336Z,3.75
2023-03-26T14:55:23.670Z,2.30
2023-03-26T14:58:54.224Z,4.37
2023-03-26T15:02:34.138Z,3.10
2023-03-26T15:06:04.097Z,2.60
2023-03-26T15:09:46.322Z,4.37
2023-03-26T15:13:12.584Z,3.63
2023-03-26T15:16:33.747Z,4.90
2023-03-26T15:19:57.717Z,5.45
2023-03-26T15:23:24.539Z,4.20
2023-03-26T15:26:49.718Z,3.80
2023-03-26T15:30:00.817Z,3.57
2023-03-26T15:33:10.237Z,2.85
2023-03-26T15:36:34.679Z,2.92
2023-03-26T15:40:19.155Z,3.15
2023-03-26T15:43:21.882Z,2.85
2023-03-26T15:46:33.411Z,4.10
2023-03-26T15:49:42.711Z,3.62
2023-03-26T15:53:29.666Z,4.18
2023-03-26T15:57:01.287Z,3.05
2023-03-26T16:00:22.495Z,3.12
2023-03-26T16:03:39.626Z,3.40
2023-03-26T16:06:54.862Z,3.95
2023-03-26T16:10:32.028Z,3.25
2023-03-26T16:13:34.473Z,4.37
2023-03-26T16:16:57.349Z,3.45
2023-03-26T16:20:46.676Z,2.90
2023-03-26T16:23:49.227Z,3.90
2023-03-26T16:26:51.515Z,3.60
2023-03-26T16:30:00.132Z,3.75
2023-03-26T16:33:19.170Z,3.62
2023-03-26T16:36:30.948Z,3.50
2023-03-26T16:39:44.290Z,3.35
2023-03-26T16:43:20.835Z,4.22
2023-03-26T16:46:52.670Z,4.53
2023-03-26T16:50:14.076Z,3.55
2023-03-26T16:53:58.809Z,5.20
2023-03-26T16:57:41.602Z,4.78
2023-03-26T17:00:59.853Z,10.75
2023-03-26T17:04:25.035Z,6.00
2023-03-26T17:07:38.971Z,5.95
2023-03-26T17:10:56.755Z,6.97
2023-03-26T17:14:11.153Z,7.03
2023-03-26T17:17:19.981Z,6.05
2023-03-26T17:20:33.516Z,7.78
2023-03-26T17:24:00.034Z,9.02
2023-03-26T17:27:41.783Z,8.83
2023-03-26T17:30:56.685Z,7.72
2023-03-26T17:34:39.212Z,7.43
2023-03-26T17:37:45.647Z,7.62
2023-03-26T17:40:54.813Z,7.00
2023-03-26T17:43:57.708Z,7.60
2023-03-26T17:47:00.833Z,8.85
2023-03-26T17:50:06.931Z,7.43
2023-03-26T17:53:21.151Z,6.50
2023-03-26T17:56:29.502Z,7.05
2023-03-26T17:59:32.786Z,7.53
2023-03-26T18:02:42.229Z,8.20
2023-03-26T18:05:46.357Z,10.00
2023-03-26T18:09:37.149Z,7.55
2023-03-26T18:12:57.618Z,6.47
2023-03-26T18:16:14.956Z,7.30
2023-03-26T18:19:21.991Z,6.18
2023-03-26T18:22:28.602Z,7.50
2023-03-26T18:25:33.979Z,6.30
2023-03-26T18:28:42.593Z,6.95
2023-03-26T18:31:48.221Z,7.33
2023-03-26T18:34:59.027Z,7.25
2023-03-26T18:38:03.517Z,7.37
2023-03-26T18:41:15.299Z,7.45
2023-03-26T18:44:19.626Z,7.28
2023-03-26T18:47:22.782Z,9.13
2023-03-26T18:50:36.891Z,7.82
2023-03-26T18:53:48.325Z,9.32
2023-03-26T18:56:52.307Z,10.80
2023-03-26T18:59:57.364Z,9.13
2023-03-26T19:03:08.184Z,6.43
2023-03-26T19:06:14.225Z,6.57
2023-03-26T19:09:31.006Z,5.93
2023-03-26T19:12:35.715Z,8.63
2023-03-26T19:15:38.557Z,8.90
2023-03-26T19:18:44.264Z,7.80
2023-03-26T19:21:48.463Z,6.40
2023-03-26T19:24:57.646Z,8.00
2023-03-26T19:28:00.314Z,9.40
2023-03-26T19:31:14.913Z,8.48
2023-03-26T19:34:31.653Z,11.30
2023-03-26T19:37:34.074Z,11.30
2023-03-26T19:40:36.820Z,11.02
2023-03-26T19:43:39.624Z,10.30
2023-03-26T19:46:53.383Z,9.60
2023-03-26T19:50:01.406Z,8.30
2023-03-26T19:53:29.850Z,11.95
2023-03-26T19:56:33.747Z,8.75
2023-03-26T19:59:36.419Z,9.00
2023-03-26T20:02:38.974Z,10.75
2023-03-26T20:05:41.729Z,7.57
2023-03-26T20:08:44.336Z,7.95
2023-03-26T20:11:47.078Z,11.32
2023-03-26T20:14:49.480Z,9.18
2023-03-26T20:17:55.724Z,10.90
2023-03-26T20:20:58.370Z,9.43
2023-03-26T20:24:01.701Z,8.98
2023-03-26T20:27:04.127Z,9.10
2023-03-26T20:30:08.113Z,9.43
2023-03-26T20:33:17.954Z,9.82
2023-03-26T20:36:32.999Z,8.47
2023-03-26T20:39:37.835Z,8.77
2023-03-26T20:42:41.645Z,9.95
2023-03-26T20:45:45.684Z,10.65
2023-03-26T20:48:48.673Z,9.55
2023-03-26T20:51:51.072Z,10.83
2023-03-26T20:54:53.759Z,12.40
2023-03-26T20:57:56.139Z,10.02
2023-03-26T21:01:01.272Z,10.35
2023-03-26T21:04:04.444Z,9.38
2023-03-26T21:07:17.689Z,11.63
2023-03-26T21:10:21.512Z,9.63
2023-03-26T21:13:37.288Z,7.55
2023-03-26T21:16:39.841Z,7.43
2023-03-26T21:19:43.700Z,7.82
2023-03-26T21:23:06.939Z,8.67
2023-03-26T21:26:26.504Z,9.02
2023-03-26T21:29:29.121Z,8.48
2023-03-26T21:32:32.394Z,7.82
2023-03-26T21:35:35.253Z,7.30
2023-03-26T21:38:38.704Z,4.13
2023-03-26T21:42:05.354Z,6.15
2023-03-26T21:45:09.278Z,5.78
2023-03-26T21:48:12.699Z,5.30
2023-03-26T21:51:19.261Z,3.60
2023-03-26T21:54:30.091Z,4.07
2023-03-26T21:58:12.246Z,3.58
2023-03-26T22:01:36.107Z,3.65
2023-03-26T22:05:04.473Z,3.92
2023-03-26T22:08:10.840Z,3.87
2023-03-26T22:11:13.607Z,3.87
2023-03-26T22:14:15.966Z,4.18
2023-03-26T22:17:19.136Z,3.65
2023-03-26T22:20:27.949Z,3.60
2023-03-26T22:23:38.241Z,3.67
2023-03-26T22:26:41.482Z,4.70
2023-03-26T22:29:44.079Z,3.90
2023-03-26T22:32:46.978Z,4.10
2023-03-26T22:35:49.711Z,3.20
2023-03-26T22:38:54.073Z,4.15
2023-03-26T22:41:57.558Z,4.70
2023-03-26T22:44:59.849Z,3.72
2023-03-26T22:48:04.604Z,5.90
2023-03-26T22:51:09.203Z,3.87
2023-03-26T22:54:11.832Z,4.15
2023-03-26T22:57:14.322Z,4.40
2023-03-26T23:00:19.472Z,4.68
2023-03-26T23:03:35.314Z,4.03
2023-03-26T23:06:38.212Z,4.20
2023-03-26T23:09:40.610Z,4.62
2023-03-26T23:12:43.285Z,7.47
2023-03-26T23:15:48.608Z,4.87
2023-03-26T23:18:51.302Z,5.30
2023-03-26T23:21:53.670Z,5.40
2023-03-26T23:24:56.308Z,3.45
2023-03-26T23:27:58.646Z,4.40
2023-03-26T23:31:04.408Z,3.70
2023-03-26T23:34:06.785Z,3.30
2023-03-26T23:37:11.168Z,7.30
2023-03-26T23:40:13.880Z,3.70
2023-03-26T23:43:17.201Z,3.30
2023-03-26T23:46:23.807Z,3.33
2023-03-26T23:49:27.059Z,4.32
2023-03-26T23:52:30.550Z,4.37
2023-03-26T23:55:36.516Z,3.65
2023-03-26T23:58:40.242Z,5.47
